الصفحة الرئيسية
METAR-TAF:

METAR-TAF

مطار :

Acapulco, المكسيك

دائرة عرض: 16-46N, خط طول: 099-45W, ارتفاع: 5 متر

مراقبة الطقس الحالي

تاريخ ووقت الإصدار 27 دقيقة قبل الساعة 03:42UTC
ريح 2 عقدة من الشمال الشرقي
درجة الحرارة 25°درجة مئوية
الرطوبة 79%
ضغط 1011 hPa
الرؤية: 9.7 كم
غيوم قليلة على ارتفاع 30000 قدم

METAR: MMAA 240342Z 04002KT 6SM FEW300 25/21 A2986 RMK 8/002 HZY

زمن: 22:09 (04:09 UTC)

توقعات

تاريخ ووقت الإصدار 5ساعات و 0 دقيقة قبل الساعة 23:09UTC
التوقعات صالحة من24 الساعة 00 UTC إلى 25 الساعة 06 UTC
ريح 5 عقدة من الجنوب الغربي
الرؤية: 10 كم
غيوم متفرقة على ارتفاع 30000 قدم
أصبح
من 24 الساعة 03 UTC إلى 24 الساعة 04 UTC
ريح 5 عقدة من الشمال
سماء صافية
من 24 الساعة 2000 UTC
ريح 8 عقدة من الغرب/الجنوب الغربي
الرؤية: 10 كم
غيوم متفرقة على ارتفاع 30000 قدم
أصبح
من 25 الساعة 03 UTC إلى 25 الساعة 04 UTC
ريح 5 عقدة من الشمال/الشمال الغربي
غيوم مفككة على ارتفاع 30000 قدم

TAF: MMAA 232309Z 2400/2506 23005KT P6SM SCT300 TX30/2418Z TN22/2410Z BECMG 2403/2404 35005KT SKC FM242000 24008KT P6SM SCT300 BECMG 2503/2504 34005KT BKN300

أرصاد الطقس والتوقعات من أكثر من 4000 مطار (تقارير الطقس للمطار METAR والتنبؤ بالطقس بالمطارTAF).

المحطات المتاحة هي النقط الصفراء والحمراء على الخريطة.

حرك المؤشر فوق النقطة لمعرفة اسم المحطة.

ثم انقر لمعرفة أرصاد وتوقعات الطقس.

لتغيير الخارطة: اضغط على الأزرار الخضراء مع رمز الصليب الأسود للتكبير. على الزر الأخضر مع شرطة للتصغير، أو على الأسهم الخضراء للخرائط المجاورة.


METAR-TAF: